Startpagina
METAR-TAF:

METAR-TAF

Vliegvelden :

Antananarivo, Madagaskar

Luchthaven Ivato

breedte: 18-48S, lengte: 047-29E, hoogte: 1279 m

Actueel weer

Dit bericht is 20 uur en het 7 minuten geleden gemaakt, om 15:00 UTC
Wind 5 kt uit het zuidoosten, variërend tussen het oosten en het zuiden
Temperatuur 24°C
Vochtigheid 57%
Druk 1015 hPa
Zicht 10 km of meer
Weinig wolken op 2000 ft, Cumulonimbus.

METAR: FMMI 201500Z 13005KT 090V170 9999 FEW020CB 24/15 Q1015 NOSIG

Tijdstip: 14:07 (11:07 UTC)

Verwachting

Dit bericht is 7 minuten geleden gemaakt, om 11:00 UTC
Verwachting geldig van 20 om 12 UTC tot 21 om 18 UTC
Wind 8 kt uit het zuidoosten
Zicht 10 km of meer
Verspreide wolken op 1700 ft
Verspreide wolken op 2000 ft
Kans 30% :
Tijdelijke
van 20 om 15 UTC tot 20 om 22 UTC
Zicht: 4500 m
onweer, regen

TAF: FMMI 201100Z 2012/2118 13008KT 9999 SCT017 SCT020 PROB30 TEMPO 2015/2022 4500 TSRA

Waarnemingen en weersverwachtingen van meer dan 4000 vliegvelden (METAR en TAF).

De beschikbare stations zijn de gele en rode punten op de kaart.

Ga met uw muis naar het station om de naam te zien.

Klik dan om waarnemingen en weersverwachtingen te zien.

kaart wijzigen: klik op de groene knoppen met een zwart kruis om in te zoomen, op de groene knop met een streepje om uit te zoomen of op de groene pijlen voor aangrenzende kaarten.


METAR-TAF: